KFDR/FDR METAR and TAF weather

Enter ICAO airport designator
Station Type Date Time Source
KFDR METAR 2021/09/25 03:53 UTC NOAA

KFDR 250353Z AUTO 15009KT 10SM CLR 20/07 A3000 RMK AO2 SLP145 T02000072


Station Type Date Time Source
KFDR Decoded METAR 2021/09/25 03:53 UTC NOAA

FREDERICK MUNICIPAL AIRPORT, OK, United States (KFDR) 34-21N 98-59W 377M
Sep 24, 2021 - 11:53 PM EDT / 2021.09.25 0353 UTC
Wind: from the SSE (150 degrees) at 10 MPH (9 KT):0
Visibility: 10 mile(s):0
Sky conditions: clear
Temperature: 68.0 F (20.0 C)
Dew Point: 45.0 F (7.2 C)
Relative Humidity: 43%
Pressure (altimeter): 30 in. Hg (1015 hPa)
ob: KFDR 250353Z AUTO 15009KT 10SM CLR 20/07 A3000 RMK AO2 SLP145 T02000072
cycle: 4

Station Type Date Time Source
KFDR TAF UTC NOAA

Error!

Example: see airport list